Time;durP1;ratioP1;P1;durP2;ratioP2;P2;SDS_P1;SDS_P2;PMS_P1;PMS_P2;Temp;Humidity;BMP_temperature;BMP_pressure;BME280_temperature;BME280_humidity;BME280_pressure;Samples;Min_cycle;Max_cycle;Signal;HPM_P1;HPM_P2
2023/06/28 00:01:24;;;;;;;;;;;;;;;17.36;76.52;100638.45;107647;1253;112195;-68
2023/06/28 00:03:52;;;;;;;;;;;;;;;17.30;76.57;100649.77;107615;1252;110056;-70
2023/06/28 00:06:20;;;;;;;;;;;;;;;17.21;77.45;100656.85;107590;1254;108237;-68
2023/06/28 00:08:48;;;;;;;;;;;;;;;17.16;76.35;100656.78;107632;1251;97817;-68
2023/06/28 00:11:17;;;;;;;;;;;;;;;17.17;77.21;100658.29;107616;1251;97704;-67
2023/06/28 00:13:45;;;;;;;;;;;;;;;17.15;77.26;100659.84;107521;1251;111821;-68
2023/06/28 00:16:14;;;;;;;;;;;;;;;17.12;76.80;100656.61;107537;1250;110475;-67
2023/06/28 00:18:43;;;;;;;;;;;;;;;17.18;76.45;100657.11;107623;1251;107521;-67
2023/06/28 00:21:14;;;;;;;;;;;;;;;17.31;76.90;100651.41;107597;1251;97854;-71
2023/06/28 00:23:43;;;;;;;;;;;;;;;17.38;76.44;100641.15;107608;1254;97826;-67
2023/06/28 00:26:11;;;;;;;;;;;;;;;17.47;76.14;100644.27;107637;1254;110788;-68
2023/06/28 00:28:40;;;;;;;;;;;;;;;17.51;75.42;100648.73;107645;1253;108640;-67
2023/06/28 00:31:09;;;;;;;;;;;;;;;17.60;75.25;100642.72;107613;1251;108390;-68
2023/06/28 00:33:37;;;;;;;;;;;;;;;17.72;74.96;100641.16;107625;1251;97840;-67
2023/06/28 00:36:06;;;;;;;;;;;;;;;17.81;74.92;100638.25;107560;1254;97837;-66
2023/06/28 00:38:35;;;;;;;;;;;;;;;17.86;74.29;100638.64;107562;1250;111822;-68
2023/06/28 00:41:04;;;;;;;;;;;;;;;17.92;73.89;100631.08;107580;1250;109764;-68
2023/06/28 00:43:33;;;;;;;;;;;;;;;17.94;73.55;100635.20;107514;1254;108431;-67
2023/06/28 00:46:02;;;;;;;;;;;;;;;17.90;72.82;100637.90;107511;1250;97809;-68
2023/06/28 00:48:31;;;;;;;;;;;;;;;17.90;72.66;100636.79;107537;1251;97705;-67
2023/06/28 00:50:59;;;;;;;;;;;;;;;17.92;73.01;100630.40;107534;1251;112357;-67
2023/06/28 00:53:27;;;;;;;;;;;;;;;17.87;72.87;100624.61;107536;1251;108737;-68
2023/06/28 00:55:56;;;;;;;;;;;;;;;17.84;72.88;100626.35;107454;1251;108107;-69
2023/06/28 00:58:25;;;;;;;;;;;;;;;17.79;73.10;100627.34;107613;1254;97815;-69
2023/06/28 01:00:53;;;;;;;;;;;;;;;17.74;72.96;100619.61;107594;1252;97922;-66
2023/06/28 01:03:21;;;;;;;;;;;;;;;17.70;73.64;100617.95;107635;1256;112237;-66
2023/06/28 01:05:52;;;;;;;;;;;;;;;17.59;74.02;100617.59;107573;1254;108651;-67
2023/06/28 01:08:21;;;;;;;;;;;;;;;17.44;74.38;100615.95;107627;1256;108871;-66
2023/06/28 01:10:50;;;;;;;;;;;;;;;17.36;74.69;100613.44;107632;1255;97880;-67
2023/06/28 01:13:18;;;;;;;;;;;;;;;17.30;74.54;100612.55;107592;1251;97850;-68
2023/06/28 01:15:46;;;;;;;;;;;;;;;17.33;74.76;100620.95;107523;1250;110922;-66
2023/06/28 01:18:19;;;;;;;;;;;;;;;17.31;75.29;100625.83;107528;1251;111109;-68
2023/06/28 01:20:49;;;;;;;;;;;;;;;17.24;75.51;100642.48;107515;1251;108344;-66
2023/06/28 01:23:21;;;;;;;;;;;;;;;17.22;74.95;100642.56;107548;1251;97865;-67
2023/06/28 01:25:50;;;;;;;;;;;;;;;17.26;74.75;100647.36;107526;1251;97892;-67
2023/06/28 01:28:19;;;;;;;;;;;;;;;17.37;74.47;100652.89;107659;1251;112078;-68
2023/06/28 01:30:52;;;;;;;;;;;;;;;17.46;74.48;100658.39;107524;1251;109914;-66
2023/06/28 01:33:21;;;;;;;;;;;;;;;17.46;74.22;100659.03;107527;1251;107258;-67
2023/06/28 01:35:50;;;;;;;;;;;;;;;17.44;73.68;100658.40;107520;1250;97828;-67
2023/06/28 01:38:19;;;;;;;;;;;;;;;17.46;73.39;100660.36;107521;1251;97905;-69
2023/06/28 01:40:49;;;;;;;;;;;;;;;17.50;73.33;100664.60;107495;1250;113404;-66
2023/06/28 01:43:18;;;;;;;;;;;;;;;17.55;73.35;100667.96;107529;1251;109857;-68
2023/06/28 01:45:49;;;;;;;;;;;;;;;17.59;72.80;100656.30;107521;1251;107377;-68
2023/06/28 01:48:18;;;;;;;;;;;;;;;17.65;72.67;100650.70;107631;1251;97716;-66
2023/06/28 01:50:46;;;;;;;;;;;;;;;17.72;72.86;100653.59;107510;1251;97711;-67
2023/06/28 01:53:17;;;;;;;;;;;;;;;17.70;72.60;100663.28;107611;1251;111923;-68
2023/06/28 01:55:45;;;;;;;;;;;;;;;17.63;72.26;100673.05;107536;1254;110540;-67
2023/06/28 01:58:13;;;;;;;;;;;;;;;17.57;72.32;100680.32;107574;1251;107104;-68
2023/06/28 02:00:42;;;;;;;;;;;;;;;17.54;72.35;100683.04;107486;1251;97698;-72
2023/06/28 02:03:10;;;;;;;;;;;;;;;17.55;72.15;100681.76;107495;1257;97846;-67
2023/06/28 02:05:40;;;;;;;;;;;;;;;17.60;72.16;100688.36;107608;1253;112174;-67
2023/06/28 02:08:08;;;;;;;;;;;;;;;17.68;71.99;100688.61;107598;1251;109952;-67
2023/06/28 02:10:37;;;;;;;;;;;;;;;17.72;71.96;100686.80;107463;1251;108524;-66
2023/06/28 02:13:06;;;;;;;;;;;;;;;17.77;71.87;100689.64;107643;1253;97821;-67
2023/06/28 02:15:35;;;;;;;;;;;;;;;17.79;71.70;100688.88;107657;1251;97771;-67
2023/06/28 02:18:05;;;;;;;;;;;;;;;17.78;71.54;100684.59;107609;1255;112611;-67
2023/06/28 02:20:33;;;;;;;;;;;;;;;17.76;71.47;100694.65;107644;1251;108625;-67
2023/06/28 02:23:03;;;;;;;;;;;;;;;17.72;71.42;100704.59;107572;1251;107951;-68
2023/06/28 02:25:32;;;;;;;;;;;;;;;17.64;71.48;100702.55;107548;1251;97841;-67
2023/06/28 02:28:00;;;;;;;;;;;;;;;17.52;71.54;100705.10;107622;1253;97889;-67
2023/06/28 02:30:28;;;;;;;;;;;;;;;17.47;71.37;100706.83;107571;1254;112191;-67
2023/06/28 02:32:56;;;;;;;;;;;;;;;17.49;71.74;100707.06;107616;1254;109521;-67
2023/06/28 02:35:24;;;;;;;;;;;;;;;17.53;72.24;100712.03;107616;1251;108594;-67
2023/06/28 02:37:53;;;;;;;;;;;;;;;17.56;72.22;100709.66;107599;1252;97864;-68
2023/06/28 02:40:21;;;;;;;;;;;;;;;17.58;71.89;100702.44;107580;1254;97762;-67
2023/06/28 02:42:50;;;;;;;;;;;;;;;17.62;71.98;100700.66;107614;1254;111444;-67
2023/06/28 02:45:19;;;;;;;;;;;;;;;17.64;71.98;100703.17;107612;1254;109988;-66
2023/06/28 02:47:48;;;;;;;;;;;;;;;17.65;71.99;100705.61;107586;1251;108305;-67
2023/06/28 02:50:17;;;;;;;;;;;;;;;17.66;71.77;100705.48;107636;1253;97816;-67
2023/06/28 02:52:59;;;;;;;;;;;;;;;17.68;72.74;100696.66;107544;1251;97689;-68
2023/06/28 02:55:28;;;;;;;;;;;;;;;17.66;72.44;100699.82;107567;1251;112147;-69
2023/06/28 02:57:58;;;;;;;;;;;;;;;17.65;72.57;100700.47;107617;1250;109329;-67
2023/06/28 03:00:26;;;;;;;;;;;;;;;17.64;72.63;100706.05;107616;1251;107162;-68
2023/06/28 03:02:54;;;;;;;;;;;;;;;17.63;72.49;100709.80;107557;1254;97915;-68
2023/06/28 03:05:23;;;;;;;;;;;;;;;17.62;73.22;100714.13;107631;1254;97700;-67
2023/06/28 03:07:52;;;;;;;;;;;;;;;17.49;73.42;100718.40;107603;1251;111819;-67
2023/06/28 03:10:20;;;;;;;;;;;;;;;17.47;73.68;100723.30;107604;1254;110556;-67
2023/06/28 03:12:48;;;;;;;;;;;;;;;17.49;73.96;100722.29;107619;1251;107585;-67
2023/06/28 03:15:16;;;;;;;;;;;;;;;17.53;73.71;100720.47;107618;1253;97838;-68
2023/06/28 03:17:44;;;;;;;;;;;;;;;17.56;74.18;100720.98;107601;1251;97707;-68
2023/06/28 03:20:13;;;;;;;;;;;;;;;17.56;73.75;100731.50;107480;1253;111335;-67
2023/06/28 03:22:42;;;;;;;;;;;;;;;17.56;74.11;100735.84;107557;1253;109937;-67
2023/06/28 03:25:10;;;;;;;;;;;;;;;17.56;73.88;100732.31;107484;1254;107311;-67
2023/06/28 03:27:38;;;;;;;;;;;;;;;17.57;73.96;100727.19;107472;1254;97858;-68
2023/06/28 03:30:07;;;;;;;;;;;;;;;17.60;74.47;100723.98;107610;1254;97832;-68
2023/06/28 03:32:37;;;;;;;;;;;;;;;17.60;74.48;100724.73;107663;1251;111084;-68
2023/06/28 03:35:07;;;;;;;;;;;;;;;17.57;73.99;100721.49;107680;1254;110141;-67
2023/06/28 03:37:35;;;;;;;;;;;;;;;17.59;73.89;100712.09;107668;1251;108648;-68
2023/06/28 03:40:04;;;;;;;;;;;;;;;17.66;73.93;100699.34;107625;1251;97839;-68
2023/06/28 03:42:33;;;;;;;;;;;;;;;17.73;74.72;100691.80;107668;1254;98295;-69
2023/06/28 03:45:01;;;;;;;;;;;;;;;17.72;74.40;100670.98;107620;1251;111375;-68
2023/06/28 03:47:29;;;;;;;;;;;;;;;17.72;74.52;100665.07;107581;1250;109947;-68
2023/06/28 03:49:58;;;;;;;;;;;;;;;17.72;74.42;100689.55;107661;1251;108516;-68
2023/06/28 03:52:28;;;;;;;;;;;;;;;17.65;74.75;100703.44;107586;1251;97884;-66
2023/06/28 03:54:56;;;;;;;;;;;;;;;17.55;74.58;100707.91;107639;1251;97720;-73
2023/06/28 03:57:25;;;;;;;;;;;;;;;17.52;74.38;100712.18;107620;1254;111678;-69
2023/06/28 03:59:53;;;;;;;;;;;;;;;17.57;74.76;100710.57;107651;1252;110096;-67
2023/06/28 04:02:22;;;;;;;;;;;;;;;17.59;74.87;100708.81;107605;1251;110379;-68
2023/06/28 04:04:50;;;;;;;;;;;;;;;17.61;74.61;100724.82;107618;1251;97832;-67
2023/06/28 04:07:23;;;;;;;;;;;;;;;17.58;74.38;100730.05;107651;1251;97809;-67
2023/06/28 04:09:53;;;;;;;;;;;;;;;17.54;74.75;100729.19;107617;1251;112976;-68
2023/06/28 04:12:21;;;;;;;;;;;;;;;17.50;74.67;100724.06;107634;1254;109415;-67
2023/06/28 04:14:49;;;;;;;;;;;;;;;17.48;74.72;100728.84;107619;1255;109192;-68
2023/06/28 04:17:17;;;;;;;;;;;;;;;17.48;74.60;100730.06;107591;1251;97748;-68
2023/06/28 04:19:46;;;;;;;;;;;;;;;17.47;75.15;100736.52;107607;1251;97877;-66
2023/06/28 04:22:14;;;;;;;;;;;;;;;17.42;75.13;100736.42;107627;1251;111588;-67
2023/06/28 04:24:42;;;;;;;;;;;;;;;17.37;75.23;100733.75;107602;1251;109973;-68
2023/06/28 04:27:10;;;;;;;;;;;;;;;17.35;75.16;100730.50;107585;1251;107031;-67
2023/06/28 04:29:38;;;;;;;;;;;;;;;17.40;75.07;100733.56;107609;1251;97844;-66
2023/06/28 04:32:20;;;;;;;;;;;;;;;17.47;74.73;100736.22;107671;1251;97813;-67
2023/06/28 04:34:52;;;;;;;;;;;;;;;17.53;74.94;100741.23;107620;1251;110589;-70
2023/06/28 04:37:21;;;;;;;;;;;;;;;17.59;74.52;100745.09;107670;1251;109890;-67
2023/06/28 04:39:50;;;;;;;;;;;;;;;17.62;74.40;100746.26;107663;1254;107783;-68
2023/06/28 04:42:18;;;;;;;;;;;;;;;17.58;74.10;100744.15;107576;1252;97835;-67
2023/06/28 04:44:47;;;;;;;;;;;;;;;17.59;73.86;100739.99;107622;1251;97711;-67
2023/06/28 04:47:18;;;;;;;;;;;;;;;17.66;74.02;100739.27;107581;1251;110401;-66
2023/06/28 04:49:47;;;;;;;;;;;;;;;17.71;74.07;100742.61;107584;1251;109949;-67
2023/06/28 04:52:18;;;;;;;;;;;;;;;17.70;74.00;100743.30;107590;1251;107484;-68
2023/06/28 04:54:47;;;;;;;;;;;;;;;17.69;73.92;100739.05;107572;1251;98008;-66
2023/06/28 04:57:17;;;;;;;;;;;;;;;17.73;74.23;100738.23;107628;1254;97836;-70
2023/06/28 04:59:45;;;;;;;;;;;;;;;17.68;74.16;100741.71;107596;1253;112199;-69
2023/06/28 05:02:14;;;;;;;;;;;;;;;17.70;74.04;100745.69;107624;1251;109363;-67
2023/06/28 05:04:43;;;;;;;;;;;;;;;17.73;73.77;100748.54;107565;1251;107961;-67
2023/06/28 05:07:11;;;;;;;;;;;;;;;17.80;73.68;100742.02;107634;1252;97695;-68
2023/06/28 05:09:40;;;;;;;;;;;;;;;17.86;73.48;100739.73;107598;1255;97822;-66
2023/06/28 05:12:08;;;;;;;;;;;;;;;17.88;73.57;100740.40;107575;1251;111377;-66
2023/06/28 05:14:36;;;;;;;;;;;;;;;17.90;73.34;100736.39;107614;1255;109547;-69
2023/06/28 05:17:05;;;;;;;;;;;;;;;17.98;73.27;100738.91;107553;1252;108474;-68
2023/06/28 05:19:33;;;;;;;;;;;;;;;18.11;73.24;100742.52;107540;1254;97806;-67
2023/06/28 05:22:01;;;;;;;;;;;;;;;18.25;72.80;100742.50;107595;1252;97899;-66
2023/06/28 05:24:29;;;;;;;;;;;;;;;18.32;72.03;100738.44;107619;1251;112200;-67
2023/06/28 05:26:57;;;;;;;;;;;;;;;18.40;71.85;100741.99;107603;1254;108979;-67
2023/06/28 05:29:25;;;;;;;;;;;;;;;18.48;71.52;100736.23;107580;1254;107788;-70
2023/06/28 05:31:55;;;;;;;;;;;;;;;18.60;71.12;100734.60;107595;1254;97839;-69
2023/06/28 05:34:23;;;;;;;;;;;;;;;18.63;70.09;100735.14;107603;1253;97954;-67
2023/06/28 05:36:53;;;;;;;;;;;;;;;18.65;69.79;100735.11;107573;1253;111636;-67
2023/06/28 05:39:22;;;;;;;;;;;;;;;18.72;70.03;100736.00;107591;1251;109878;-68
2023/06/28 05:42:06;;;;;;;;;;;;;;;18.81;69.79;100738.27;107644;1255;108334;-67
2023/06/28 05:44:42;;;;;;;;;;;;;;;18.88;69.33;100737.48;107542;1256;98115;-66
2023/06/28 05:47:10;;;;;;;;;;;;;;;18.95;68.92;100741.40;107609;1251;97687;-70
2023/06/28 05:49:41;;;;;;;;;;;;;;;19.02;68.33;100742.02;107445;1254;112727;-68
2023/06/28 05:52:09;;;;;;;;;;;;;;;19.11;68.26;100737.17;107648;1251;109943;-67
2023/06/28 05:54:37;;;;;;;;;;;;;;;19.23;67.77;100737.05;107614;1251;108331;-68
2023/06/28 05:57:05;;;;;;;;;;;;;;;19.33;66.94;100740.58;107615;1251;97937;-67
2023/06/28 05:59:34;;;;;;;;;;;;;;;19.36;64.57;100741.95;107621;1251;97809;-69
2023/06/28 06:02:02;;;;;;;;;;;;;;;19.36;64.77;100743.21;107587;1254;111623;-72
2023/06/28 06:04:30;;;;;;;;;;;;;;;19.31;62.67;100748.38;107659;1254;109557;-66
2023/06/28 06:06:59;;;;;;;;;;;;;;;19.18;62.49;100751.05;107613;1254;108331;-68
2023/06/28 06:09:29;;;;;;;;;;;;;;;19.09;62.78;100747.52;107606;1251;97800;-68
2023/06/28 06:11:57;;;;;;;;;;;;;;;19.05;62.56;100738.08;107697;1253;97807;-69
2023/06/28 06:14:25;;;;;;;;;;;;;;;19.06;63.10;100740.02;107567;1254;111184;-70
2023/06/28 06:16:54;;;;;;;;;;;;;;;19.06;63.20;100743.63;107556;1254;110078;-66
2023/06/28 06:19:30;;;;;;;;;;;;;;;19.12;63.35;100745.14;107606;1253;109204;-70
2023/06/28 06:21:58;;;;;;;;;;;;;;;19.21;63.18;100747.09;107674;1251;97831;-67
2023/06/28 06:24:26;;;;;;;;;;;;;;;19.30;62.69;100745.77;107621;1251;97861;-66
2023/06/28 06:26:55;;;;;;;;;;;;;;;19.45;62.25;100745.52;107597;1255;112231;-67
2023/06/28 06:29:24;;;;;;;;;;;;;;;19.64;61.99;100750.02;107635;1251;110040;-67
2023/06/28 06:31:53;;;;;;;;;;;;;;;19.74;61.04;100753.79;107580;1250;108442;-67
2023/06/28 06:34:21;;;;;;;;;;;;;;;19.83;60.67;100749.13;107601;1251;97815;-67
2023/06/28 06:36:50;;;;;;;;;;;;;;;20.00;60.17;100749.10;107592;1251;97985;-67
2023/06/28 06:39:19;;;;;;;;;;;;;;;20.18;59.64;100749.14;107596;1251;110977;-67
2023/06/28 06:41:47;;;;;;;;;;;;;;;20.46;58.43;100747.79;107590;1251;109286;-67
2023/06/28 06:44:15;;;;;;;;;;;;;;;20.68;57.39;100743.02;107646;1251;108781;-67
2023/06/28 06:46:44;;;;;;;;;;;;;;;20.87;56.57;100743.36;107583;1251;97938;-71
2023/06/28 06:49:18;;;;;;;;;;;;;;;21.01;55.16;100746.78;107610;1251;97707;-71
2023/06/28 06:51:53;;;;;;;;;;;;;;;20.94;53.50;100740.86;107576;1253;112156;-68
2023/06/28 06:54:21;;;;;;;;;;;;;;;20.90;53.73;100737.40;107623;1254;109727;-67
2023/06/28 06:56:49;;;;;;;;;;;;;;;21.06;53.71;100737.86;107609;1253;108744;-70
2023/06/28 06:59:19;;;;;;;;;;;;;;;21.21;53.71;100740.20;107615;1254;97934;-68
2023/06/28 07:01:49;;;;;;;;;;;;;;;21.33;52.94;100735.25;107610;1253;97693;-71
2023/06/28 07:04:18;;;;;;;;;;;;;;;21.49;52.59;100735.45;107639;1251;111221;-69
2023/06/28 07:06:46;;;;;;;;;;;;;;;21.60;53.32;100741.31;107622;1254;109628;-67
2023/06/28 07:09:16;;;;;;;;;;;;;;;21.76;53.09;100740.88;107594;1253;108074;-68
2023/06/28 07:11:46;;;;;;;;;;;;;;;21.88;52.41;100741.33;107634;1253;97925;-68
2023/06/28 07:14:14;;;;;;;;;;;;;;;21.90;50.85;100746.96;107623;1254;97819;-69
2023/06/28 07:16:44;;;;;;;;;;;;;;;21.82;50.48;100744.70;107631;1254;111441;-67
2023/06/28 07:19:13;;;;;;;;;;;;;;;21.77;50.27;100744.20;107622;1251;109039;-67
2023/06/28 07:21:45;;;;;;;;;;;;;;;21.71;50.51;100744.20;107584;1254;107782;-68
2023/06/28 07:24:14;;;;;;;;;;;;;;;21.78;50.29;100748.49;107593;1254;97966;-71
2023/06/28 07:26:42;;;;;;;;;;;;;;;21.77;48.50;100744.74;107636;1253;97816;-69
2023/06/28 07:29:10;;;;;;;;;;;;;;;21.84;49.36;100744.58;107588;1253;111600;-68
2023/06/28 07:31:38;;;;;;;;;;;;;;;21.81;48.01;100745.20;107567;1253;109241;-67
2023/06/28 07:34:08;;;;;;;;;;;;;;;21.79;47.94;100744.54;107569;1254;108474;-70
2023/06/28 07:36:37;;;;;;;;;;;;;;;21.84;47.63;100740.11;107537;1252;97959;-69
2023/06/28 07:39:06;;;;;;;;;;;;;;;21.99;48.31;100740.73;107649;1255;97819;-68
2023/06/28 07:41:35;;;;;;;;;;;;;;;22.13;47.89;100738.25;107609;1254;112527;-67
2023/06/28 07:44:24;;;;;;;;;;;;;;;22.31;46.34;100738.13;107512;1253;109967;-69
2023/06/28 07:47:03;;;;;;;;;;;;;;;22.38;46.35;100739.55;107577;1254;108164;-68
2023/06/28 07:49:32;;;;;;;;;;;;;;;22.55;46.52;100738.95;107581;1254;97935;-69
2023/06/28 07:52:00;;;;;;;;;;;;;;;22.79;45.93;100739.66;107632;1253;97817;-69
2023/06/28 07:54:29;;;;;;;;;;;;;;;22.99;45.04;100735.88;107633;1254;111824;-68
2023/06/28 07:57:03;;;;;;;;;;;;;;;23.15;45.16;100743.56;107598;1251;109410;-69
2023/06/28 08:00:03;;;;;;;;;;;;;;;23.21;44.95;100740.13;107650;1256;108396;-70
2023/06/28 08:02:36;;;;;;;;;;;;;;;23.28;44.43;100743.84;106801;1251;1036567;-67
2023/06/28 08:05:04;;;;;;;;;;;;;;;23.30;42.26;100743.17;107643;1254;97892;-68
2023/06/28 08:07:36;;;;;;;;;;;;;;;23.19;43.13;100746.30;107659;1251;111981;-68
2023/06/28 08:10:04;;;;;;;;;;;;;;;23.18;43.40;100744.40;107645;1251;110153;-67
2023/06/28 08:12:32;;;;;;;;;;;;;;;23.18;43.21;100749.92;107593;1251;108069;-69
2023/06/28 08:15:00;;;;;;;;;;;;;;;23.03;42.66;100749.13;107610;1251;97824;-68
2023/06/28 08:17:30;;;;;;;;;;;;;;;22.99;43.22;100742.73;107612;1254;97694;-69
2023/06/28 08:19:58;;;;;;;;;;;;;;;23.04;43.34;100747.30;107628;1254;113151;-67
2023/06/28 08:22:27;;;;;;;;;;;;;;;23.06;41.89;100747.59;107662;1251;109057;-68
2023/06/28 08:24:55;;;;;;;;;;;;;;;22.96;42.23;100744.71;107587;1255;108800;-67
2023/06/28 08:27:23;;;;;;;;;;;;;;;22.90;43.02;100746.91;107607;1251;97712;-71
2023/06/28 08:29:51;;;;;;;;;;;;;;;22.93;43.49;100749.30;107628;1251;97688;-67
2023/06/28 08:32:19;;;;;;;;;;;;;;;22.95;43.69;100750.98;107652;1254;113278;-70
2023/06/28 08:34:47;;;;;;;;;;;;;;;23.00;44.09;100756.88;107630;1254;110371;-67
2023/06/28 08:37:16;;;;;;;;;;;;;;;23.05;44.04;100757.75;107607;1251;108884;-67
2023/06/28 08:39:44;;;;;;;;;;;;;;;22.99;43.75;100758.08;107586;1251;97820;-68
2023/06/28 08:42:15;;;;;;;;;;;;;;;22.89;43.63;100759.41;107662;1254;97813;-68
2023/06/28 08:44:45;;;;;;;;;;;;;;;22.73;42.64;100761.55;107627;1254;111032;-67
2023/06/28 08:47:14;;;;;;;;;;;;;;;22.65;43.62;100752.96;107575;1254;109012;-66
2023/06/28 08:49:43;;;;;;;;;;;;;;;22.72;43.92;100752.56;107594;1253;108083;-68
2023/06/28 08:52:14;;;;;;;;;;;;;;;22.79;44.12;100755.02;107609;1251;97887;-67
2023/06/28 08:54:43;;;;;;;;;;;;;;;22.90;44.40;100754.59;107613;1251;97700;-68
2023/06/28 08:57:12;;;;;;;;;;;;;;;23.02;44.50;100752.17;107601;1253;110843;-68
2023/06/28 08:59:40;;;;;;;;;;;;;;;23.14;44.53;100746.23;107618;1254;109092;-70
2023/06/28 09:02:09;;;;;;;;;;;;;;;23.22;44.01;100747.17;107607;1256;108246;-67
2023/06/28 09:04:38;;;;;;;;;;;;;;;23.23;43.79;100741.44;107585;1254;97809;-68
2023/06/28 09:07:07;;;;;;;;;;;;;;;23.26;43.86;100740.36;107633;1254;97913;-69
2023/06/28 09:09:37;;;;;;;;;;;;;;;23.30;43.55;100739.63;107637;1254;112260;-69
2023/06/28 09:12:05;;;;;;;;;;;;;;;23.28;43.55;100736.92;107644;1254;109457;-69
2023/06/28 09:14:35;;;;;;;;;;;;;;;23.26;43.56;100739.48;107645;1254;109617;-69
2023/06/28 09:17:04;;;;;;;;;;;;;;;23.13;42.34;100737.24;107605;1254;97863;-67
2023/06/28 09:19:34;;;;;;;;;;;;;;;23.00;42.65;100739.81;107593;1254;97834;-69
2023/06/28 09:22:09;;;;;;;;;;;;;;;23.00;43.75;100739.64;107618;1256;112258;-70
2023/06/28 09:24:41;;;;;;;;;;;;;;;23.06;43.39;100739.35;107595;1251;110304;-68
2023/06/28 09:27:11;;;;;;;;;;;;;;;22.98;43.11;100736.61;107585;1256;108886;-71
2023/06/28 09:30:07;;;;;;;;;;;;;;;23.05;43.58;100732.67;107626;1254;97893;-68
2023/06/28 09:32:39;;;;;;;;;;;;;;;23.15;43.68;100736.00;107632;1253;97723;-68
2023/06/28 09:35:11;;;;;;;;;;;;;;;23.22;42.60;100741.95;107672;1254;112235;-67
2023/06/28 09:37:40;;;;;;;;;;;;;;;23.20;42.78;100747.23;107589;1254;108572;-69
2023/06/28 09:40:14;;;;;;;;;;;;;;;23.34;42.46;100745.24;107570;1254;108456;-71
2023/06/28 09:42:44;;;;;;;;;;;;;;;23.34;41.93;100748.02;107649;1251;97843;-72
2023/06/28 09:45:30;;;;;;;;;;;;;;;23.32;42.11;100743.14;107549;1251;97821;-70
2023/06/28 09:48:03;;;;;;;;;;;;;;;23.44;42.61;100742.22;107558;1251;110900;-67
2023/06/28 09:50:36;;;;;;;;;;;;;;;23.64;42.71;100738.98;107605;1251;109820;-71
2023/06/28 09:53:08;;;;;;;;;;;;;;;23.90;42.55;100736.14;107542;1257;108567;-72
2023/06/28 09:55:38;;;;;;;;;;;;;;;24.18;42.17;100734.00;107599;1251;97841;-68
2023/06/28 09:58:11;;;;;;;;;;;;;;;24.47;41.46;100729.09;107612;1251;97828;-69
2023/06/28 10:00:40;;;;;;;;;;;;;;;24.56;40.27;100725.55;107608;1256;112215;-68
2023/06/28 10:03:12;;;;;;;;;;;;;;;24.50;39.79;100725.83;107618;1251;109479;-71
2023/06/28 10:05:42;;;;;;;;;;;;;;;24.56;40.25;100721.94;107667;1251;107992;-67
2023/06/28 10:08:13;;;;;;;;;;;;;;;24.84;40.62;100715.70;107588;1254;98476;-69
2023/06/28 10:10:43;;;;;;;;;;;;;;;25.17;40.56;100711.28;107645;1253;97818;-68
2023/06/28 10:13:20;;;;;;;;;;;;;;;25.52;39.20;100705.34;107642;1253;112125;-71
2023/06/28 10:15:49;;;;;;;;;;;;;;;25.58;38.15;100700.85;107628;1254;109414;-69
2023/06/28 10:18:17;;;;;;;;;;;;;;;25.77;38.87;100692.52;107558;1251;107825;-71
2023/06/28 10:20:56;;;;;;;;;;;;;;;26.01;38.59;100687.08;107579;1251;97695;-70
2023/06/28 10:23:33;;;;;;;;;;;;;;;26.16;36.15;100681.90;107564;1251;97800;-68
2023/06/28 10:26:05;;;;;;;;;;;;;;;26.48;37.57;100680.53;107576;1251;112265;-68
2023/06/28 10:28:35;;;;;;;;;;;;;;;27.11;36.24;100678.92;107541;1251;109229;-67
2023/06/28 10:31:04;;;;;;;;;;;;;;;27.76;34.70;100675.19;107550;1251;108519;-69
2023/06/28 10:33:33;;;;;;;;;;;;;;;28.16;32.64;100671.73;107649;1254;97845;-69
2023/06/28 10:36:02;;;;;;;;;;;;;;;28.45;33.68;100674.45;107658;1251;97968;-67
2023/06/28 10:38:36;;;;;;;;;;;;;;;28.93;33.81;100669.19;107548;1251;111458;-68
2023/06/28 10:41:05;;;;;;;;;;;;;;;29.48;34.11;100666.42;107602;1251;109991;-66
2023/06/28 10:43:50;;;;;;;;;;;;;;;29.89;32.67;100665.91;107532;1251;108681;-70
2023/06/28 10:46:24;;;;;;;;;;;;;;;30.25;31.90;100658.55;107462;1258;97822;-66
2023/06/28 10:48:53;;;;;;;;;;;;;;;30.65;31.87;100650.61;107511;1252;97909;-67
2023/06/28 10:51:22;;;;;;;;;;;;;;;31.07;30.67;100655.13;107555;1251;112352;-66
2023/06/28 10:53:52;;;;;;;;;;;;;;;31.27;30.12;100643.53;107617;1255;110109;-68
2023/06/28 10:56:21;;;;;;;;;;;;;;;31.43;29.96;100638.63;107593;1254;107908;-68
2023/06/28 10:58:54;;;;;;;;;;;;;;;31.49;30.21;100637.61;107557;1251;97794;-69
2023/06/28 11:01:33;;;;;;;;;;;;;;;31.60;29.49;100633.88;107559;1256;97813;-67
2023/06/28 11:04:18;;;;;;;;;;;;;;;31.33;28.59;100634.96;107651;1254;112099;-69
2023/06/28 11:06:47;;;;;;;;;;;;;;;30.91;27.83;100625.27;107691;1251;109866;-69
2023/06/28 11:09:18;;;;;;;;;;;;;;;30.32;28.18;100624.52;107594;1256;108840;-67
2023/06/28 11:11:56;;;;;;;;;;;;;;;29.97;28.93;100627.48;107543;1250;97810;-68
2023/06/28 11:14:26;;;;;;;;;;;;;;;29.71;29.87;100625.56;107682;1254;97775;-68
2023/06/28 11:17:14;;;;;;;;;;;;;;;29.69;30.19;100630.54;107640;1254;112197;-67
2023/06/28 11:19:43;;;;;;;;;;;;;;;29.71;30.00;100634.70;107656;1254;110047;-69
2023/06/28 11:22:12;;;;;;;;;;;;;;;29.82;29.52;100636.64;107576;1255;108987;-70
2023/06/28 11:24:44;;;;;;;;;;;;;;;29.45;29.56;100635.91;107568;1251;97803;-69
2023/06/28 11:27:13;;;;;;;;;;;;;;;29.11;30.56;100637.96;107613;1251;97930;-68
2023/06/28 11:29:57;;;;;;;;;;;;;;;28.90;31.27;100638.33;107623;1256;111635;-67
2023/06/28 11:32:27;;;;;;;;;;;;;;;28.76;31.77;100636.54;107592;1254;109298;-68
2023/06/28 11:34:56;;;;;;;;;;;;;;;28.70;31.88;100638.29;107643;1256;109097;-70
2023/06/28 11:37:24;;;;;;;;;;;;;;;28.63;32.13;100630.44;107590;1256;97925;-72
2023/06/28 11:39:53;;;;;;;;;;;;;;;28.63;32.41;100629.84;107603;1255;97800;-72
2023/06/28 11:42:21;;;;;;;;;;;;;;;28.69;31.98;100626.43;107544;1257;111603;-71
2023/06/28 11:44:56;;;;;;;;;;;;;;;28.54;31.97;100631.23;107635;1251;110096;-73
2023/06/28 11:47:24;;;;;;;;;;;;;;;28.45;32.22;100634.68;107579;1256;109196;-71
2023/06/28 11:49:56;;;;;;;;;;;;;;;28.40;32.00;100632.08;107504;1256;97811;-70
2023/06/28 11:52:25;;;;;;;;;;;;;;;28.42;31.68;100632.05;107640;1256;97909;-72
2023/06/28 11:54:53;;;;;;;;;;;;;;;28.44;31.67;100628.30;107637;1251;112140;-71
2023/06/28 11:57:21;;;;;;;;;;;;;;;28.19;31.35;100631.50;107597;1256;109057;-69
2023/06/28 11:59:50;;;;;;;;;;;;;;;27.72;30.72;100636.22;107597;1251;107662;-71
2023/06/28 12:02:18;;;;;;;;;;;;;;;27.36;31.79;100631.13;107595;1257;97906;-68
2023/06/28 12:04:57;;;;;;;;;;;;;;;27.19;32.23;100636.42;107650;1251;97825;-69
2023/06/28 12:07:26;;;;;;;;;;;;;;;27.13;32.46;100634.56;107672;1254;112365;-71
2023/06/28 12:09:55;;;;;;;;;;;;;;;27.17;32.69;100627.56;107671;1257;109409;-67
2023/06/28 12:12:34;;;;;;;;;;;;;;;27.17;32.91;100629.61;107676;1253;108662;-69
2023/06/28 12:15:03;;;;;;;;;;;;;;;27.12;32.55;100627.64;107600;1254;97784;-68
2023/06/28 12:17:39;;;;;;;;;;;;;;;26.92;32.55;100628.41;107637;1256;97761;-68
2023/06/28 12:20:08;;;;;;;;;;;;;;;26.68;32.63;100627.56;107640;1256;111354;-68
2023/06/28 12:22:39;;;;;;;;;;;;;;;26.67;33.42;100625.62;107676;1253;109023;-66
2023/06/28 12:25:08;;;;;;;;;;;;;;;26.71;33.72;100617.86;107575;1251;107697;-68
2023/06/28 12:27:38;;;;;;;;;;;;;;;26.80;33.26;100621.41;107579;1255;97815;-70
2023/06/28 12:30:07;;;;;;;;;;;;;;;26.72;33.27;100625.88;107564;1255;97699;-70
2023/06/28 12:32:39;;;;;;;;;;;;;;;26.67;33.35;100620.98;107569;1256;111237;-69
2023/06/28 12:35:19;;;;;;;;;;;;;;;26.72;33.98;100621.02;107632;1256;110036;-73